Terminal Aerodrome Forecast
Issued by NWS

Current Version | Previous Version | Text Only | Print | Product List | Glossary Off
Versions: 1 2 3 4 5 6 7 8 9 10 11 12 13 14 15 16 17 18 19 20 21

000
FTUS41 KRLX 240500 RRA
TAFCKB
TAF
KCKB 240548Z 2406/2506 01005KT 6SM BR OVC015
      TEMPO 2406/2410 4SM -SHRA
     FM241100 02005KT 6SM BR OVC015
     FM241300 34005KT 6SM BR BKN025
     FM241800 34006KT P6SM BKN040
     FM242300 34005KT P6SM SCT045
     FM250400 00000KT P6SM SKC=

USA.gov is the U.S. government's official web portal to all federal, state and local government web resources and services.